Terminal Aerodrome Forecast
Issued by NWS New Orleans/Baton Rouge, LA

Home | Current Version | Previous Version | Text Only | Print | Product List | Glossary On
Versions: 1 2 3 4 5 6 7 8 9 10 11 12 13 14
000
FTUS44 KLIX 230520
TAFNEW
TAF
KNEW 230520Z 2306/2406 22014KT P6SM VCTS SCT009CB BKN090 BKN110
     FM230800 33017G25KT P6SM VCSH OVC015
     FM231800 33017KT P6SM SCT030
     FM232300 33020G28KT P6SM SCT080=

USA.gov is the U.S. government's official web portal to all federal, state and local government web resources and services.